Aviation Digital Data Service (ADDS)

Output produced by METARs form (2015 UTC 23 January 2019)
found at http://www.aviationweather.gov/metar/data/
 
Forecast for: KRNO (RENO , NV, US)
Text: KRNO 231755Z 2318/2418 VRB03KT P6SM FEW200
Forecast period: 1800 to 2200 UTC 23 January 2019
Forecast type: FROM: standard forecast or significant change
Winds: variable direction winds at 3 MPH (3 knots; 1.5 m/s)
Visibility: 6 or more miles 10+ km)
Ceiling: at least 12,000 feet AGL
Clouds: few clouds at 20000 feet AGL
Weather: no significant weather forecast for this period
Text: FM232200 32006KT P6SM FEW080 SCT200
Forecast period: 2200 UTC 23 January 2019 to 0800 UTC 24 January 2019
Forecast type: FROM: standard forecast or significant change
Winds: from the NW (320 degrees) at 7 MPH (6 knots; 3.1 m/s)
Visibility: 6 or more miles 10+ km)
Ceiling: at least 12,000 feet AGL
Clouds: few clouds at 8000 feet AGL
scattered clouds at 20000 feet AGL
Weather: no significant weather forecast for this period
Text: FM240800 VRB03KT P6SM SCT150 BKN250
Forecast period: 0800 to 1800 UTC 24 January 2019
Forecast type: FROM: standard forecast or significant change
Winds: variable direction winds at 3 MPH (3 knots; 1.5 m/s)
Visibility: 6 or more miles 10+ km)
Ceiling: 25000 feet AGL
Clouds: scattered clouds at 15000 feet AGL
broken clouds at 25000 feet AGL
Weather: no significant weather forecast for this period